Time;durP1;ratioP1;P1;durP2;ratioP2;P2;SDS_P1;SDS_P2;PMS_P1;PMS_P2;Temp;Humidity;BMP_temperature;BMP_pressure;BME280_temperature;BME280_humidity;BME280_pressure;Samples;Min_cycle;Max_cycle;Signal;HPM_P1;HPM_P2
2023/07/04 00:00:34;;;;;;;3.35;1.48;;;21.60;50.00;;;;;;5041204;28;20456;-60
2023/07/04 00:03:00;;;;;;;5.00;1.75;;;21.60;50.10;;;;;;5039771;28;20037;-60
2023/07/04 00:05:26;;;;;;;3.60;1.63;;;21.40;50.50;;;;;;5040565;28;20096;-60
2023/07/04 00:07:52;;;;;;;3.97;1.98;;;21.40;50.80;;;;;;5040517;28;20037;-59
2023/07/04 00:10:20;;;;;;;4.50;1.55;;;21.30;51.10;;;;;;5041171;28;20128;-59
2023/07/04 00:12:46;;;;;;;4.35;2.17;;;21.30;51.40;;;;;;5040992;28;20041;-59
2023/07/04 00:15:14;;;;;;;5.88;1.88;;;21.20;52.30;;;;;;5040830;28;20046;-60
2023/07/04 00:17:42;;;;;;;2.80;1.73;;;21.10;52.20;;;;;;5038174;28;20457;-60
2023/07/04 00:20:09;;;;;;;4.50;1.90;;;21.10;52.50;;;;;;5037951;28;20056;-60
2023/07/04 00:22:39;;;;;;;4.32;1.85;;;21.00;52.50;;;;;;5037721;28;20597;-61
2023/07/04 00:25:06;;;;;;;7.05;1.90;;;20.90;53.70;;;;;;5043016;28;20065;-60
2023/07/04 00:27:32;;;;;;;3.80;1.67;;;20.90;53.60;;;;;;5037094;28;20057;-61
2023/07/04 00:29:58;;;;;;;5.28;1.73;;;20.80;53.70;;;;;;5035456;28;20037;-60
2023/07/04 00:32:24;;;;;;;4.28;2.05;;;20.80;53.70;;;;;;5038559;28;20029;-59
2023/07/04 00:34:50;;;;;;;3.78;1.73;;;20.70;54.10;;;;;;5035511;28;20041;-59
2023/07/04 00:37:21;;;;;;;3.42;1.60;;;20.60;54.20;;;;;;5036466;28;20022;-59
2023/07/04 00:39:49;;;;;;;4.97;1.70;;;20.60;54.50;;;;;;5035072;28;20032;-59
2023/07/04 00:42:14;;;;;;;3.03;1.80;;;20.60;54.90;;;;;;5040724;28;20029;-59
2023/07/04 00:44:47;;;;;;;3.42;1.85;;;20.60;54.80;;;;;;5038210;28;20052;-61
2023/07/04 00:47:21;;;;;;;3.78;1.70;;;20.50;55.00;;;;;;5030317;28;20036;-61
2023/07/04 00:49:57;;;;;;;4.82;1.70;;;20.50;55.10;;;;;;5036258;28;20034;-60
2023/07/04 00:52:33;;;;;;;4.72;1.77;;;20.50;55.70;;;;;;5046192;28;20028;-59
2023/07/04 00:55:04;;;;;;;5.50;1.90;;;20.40;55.70;;;;;;5037459;28;20048;-59
2023/07/04 00:57:32;;;;;;;2.83;1.90;;;20.40;55.60;;;;;;5039878;28;20056;-60
2023/07/04 01:00:08;;;;;;;5.45;2.10;;;20.40;55.90;;;;;;5040597;28;20095;-61
2023/07/04 01:02:35;;;;;;;2.78;1.30;;;20.40;56.40;;;;;;5032523;28;20025;-60
2023/07/04 01:05:05;;;;;;;2.97;1.70;;;20.30;56.30;;;;;;5035816;28;20017;-61
2023/07/04 01:07:58;;;;;;;4.43;2.05;;;20.30;56.50;;;;;;5045614;28;20025;-60
2023/07/04 01:10:38;;;;;;;2.65;1.67;;;20.30;57.50;;;;;;5045468;28;20041;-61
2023/07/04 01:13:06;;;;;;;6.20;1.75;;;20.20;57.30;;;;;;5043150;28;20478;-59
2023/07/04 01:15:32;;;;;;;2.53;1.65;;;20.20;56.50;;;;;;5039256;28;20041;-60
2023/07/04 01:17:59;;;;;;;4.22;1.58;;;20.20;56.70;;;;;;5038357;28;20035;-60
2023/07/04 01:20:25;;;;;;;4.93;2.00;;;20.10;57.00;;;;;;5037228;28;20044;-61
2023/07/04 01:23:14;;;;;;;3.63;1.73;;;20.10;57.00;;;;;;5035666;28;20018;-60
2023/07/04 01:26:07;;;;;;;5.32;1.90;;;20.10;57.80;;;;;;5038123;28;20053;-59
2023/07/04 01:28:33;;;;;;;3.30;1.70;;;20.10;58.10;;;;;;5036214;28;20030;-61
2023/07/04 01:30:58;;;;;;;3.35;1.60;;;20.00;56.80;;;;;;5042242;28;20422;-61
2023/07/04 01:33:25;;;;;;;3.17;1.85;;;20.00;56.90;;;;;;5038947;28;20029;-60
2023/07/04 01:35:50;;;;;;;2.50;1.40;;;19.90;56.90;;;;;;5033912;28;20030;-61
2023/07/04 01:38:16;;;;;;;7.57;1.80;;;19.90;57.10;;;;;;5042443;28;20056;-61
2023/07/04 01:40:42;;;;;;;2.60;1.70;;;19.80;57.40;;;;;;5038114;28;20026;-60
2023/07/04 01:43:08;;;;;;;1.90;1.60;;;19.80;57.50;;;;;;5039653;28;20044;-60
2023/07/04 01:45:34;;;;;;;5.22;1.77;;;19.70;57.70;;;;;;5033864;28;20060;-60
2023/07/04 01:47:59;;;;;;;3.22;1.50;;;19.70;57.60;;;;;;5039162;28;20174;-61
2023/07/04 01:50:25;;;;;;;2.88;1.67;;;19.60;57.80;;;;;;5036525;28;20024;-60
2023/07/04 01:52:51;;;;;;;4.82;1.70;;;19.60;57.80;;;;;;5038892;28;20044;-60
2023/07/04 01:55:17;;;;;;;4.25;1.73;;;19.50;57.90;;;;;;5037400;28;20041;-60
2023/07/04 01:57:42;;;;;;;3.20;1.73;;;19.40;58.30;;;;;;5032872;28;20029;-60
2023/07/04 02:00:10;;;;;;;6.82;1.98;;;19.30;58.50;;;;;;5032396;28;20021;-60
2023/07/04 02:02:37;;;;;;;4.22;1.92;;;19.30;58.80;;;;;;5038145;28;20025;-60
2023/07/04 02:05:03;;;;;;;3.90;1.92;;;19.20;58.90;;;;;;5043287;28;20087;-59
2023/07/04 02:07:29;;;;;;;3.15;2.00;;;19.20;59.00;;;;;;5040190;28;20520;-60
2023/07/04 02:09:55;;;;;;;4.60;1.85;;;19.20;60.00;;;;;;5032123;28;20078;-60
2023/07/04 02:12:20;;;;;;;3.67;1.92;;;19.20;59.50;;;;;;5037012;28;20044;-60
2023/07/04 02:14:46;;;;;;;7.13;1.92;;;19.10;59.60;;;;;;5020846;28;20038;-61
2023/07/04 02:17:12;;;;;;;3.90;1.85;;;19.10;59.50;;;;;;5041212;28;20022;-61
2023/07/04 02:19:38;;;;;;;3.20;1.50;;;19.00;59.70;;;;;;5034533;28;20064;-61
2023/07/04 02:22:03;;;;;;;7.47;2.08;;;19.00;59.90;;;;;;5035067;28;20037;-61
2023/07/04 02:24:29;;;;;;;2.72;1.80;;;19.00;60.20;;;;;;5034638;28;20021;-61
2023/07/04 02:26:55;;;;;;;4.03;1.98;;;19.00;60.60;;;;;;5035480;28;20457;-60
2023/07/04 02:29:21;;;;;;;2.70;1.70;;;19.00;60.60;;;;;;5035971;28;20026;-59
2023/07/04 02:31:46;;;;;;;6.50;2.20;;;18.90;60.80;;;;;;5035015;28;20022;-59
2023/07/04 02:34:12;;;;;;;4.95;2.00;;;19.00;61.00;;;;;;5038417;28;20038;-60
2023/07/04 02:36:38;;;;;;;3.38;1.70;;;19.00;61.00;;;;;;5022345;28;20041;-60
2023/07/04 02:39:04;;;;;;;3.63;1.90;;;19.00;61.10;;;;;;5030030;28;20038;-61
2023/07/04 02:41:29;;;;;;;6.63;2.17;;;19.00;61.20;;;;;;5044796;28;20022;-60
2023/07/04 02:43:57;;;;;;;6.10;2.35;;;19.00;61.00;;;;;;5036062;28;20037;-60
2023/07/04 02:46:23;;;;;;;4.78;1.77;;;18.90;61.10;;;;;;5039617;28;20570;-61
2023/07/04 02:48:49;;;;;;;2.83;1.55;;;18.90;61.00;;;;;;5036319;28;20026;-59
2023/07/04 02:51:14;;;;;;;6.38;2.00;;;18.90;61.10;;;;;;5037971;28;20101;-59
2023/07/04 02:53:40;;;;;;;7.40;2.08;;;18.90;61.20;;;;;;5025133;28;20060;-60
2023/07/04 02:56:07;;;;;;;5.03;1.67;;;18.90;61.30;;;;;;5035098;28;20041;-61
2023/07/04 02:58:33;;;;;;;7.47;1.90;;;18.90;61.40;;;;;;5032057;28;20067;-59
2023/07/04 03:01:01;;;;;;;6.07;2.30;;;18.90;61.50;;;;;;5032202;28;20088;-61
2023/07/04 03:03:27;;;;;;;4.85;2.20;;;18.90;61.40;;;;;;5035334;28;20037;-60
2023/07/04 03:05:53;;;;;;;3.47;1.85;;;18.90;61.70;;;;;;5035580;28;20022;-59
2023/07/04 03:08:19;;;;;;;3.58;1.70;;;18.90;61.80;;;;;;5038028;28;20052;-61
2023/07/04 03:10:48;;;;;;;3.95;2.00;;;18.90;61.90;;;;;;5021053;28;20034;-61
2023/07/04 03:13:14;;;;;;;7.38;2.17;;;18.80;62.20;;;;;;5036065;28;20037;-60
2023/07/04 03:15:40;;;;;;;4.05;2.20;;;18.90;61.90;;;;;;5039710;28;20043;-60
2023/07/04 03:18:06;;;;;;;5.43;2.10;;;18.80;61.70;;;;;;5038803;28;20504;-60
2023/07/04 03:20:31;;;;;;;5.47;2.05;;;18.80;61.80;;;;;;5032299;28;20033;-60
2023/07/04 03:22:57;;;;;;;5.88;2.25;;;18.80;62.20;;;;;;5037193;28;20079;-60
2023/07/04 03:25:23;;;;;;;2.85;1.80;;;18.80;62.30;;;;;;5040637;28;20076;-59
2023/07/04 03:27:48;;;;;;;7.35;2.30;;;18.80;62.50;;;;;;5026189;28;20040;-60
2023/07/04 03:30:15;;;;;;;7.50;2.08;;;18.80;62.70;;;;;;5041359;28;20029;-59
2023/07/04 03:32:41;;;;;;;4.95;2.30;;;18.70;62.70;;;;;;5044737;28;20373;-59
2023/07/04 03:35:08;;;;;;;6.05;2.38;;;18.70;62.80;;;;;;5018154;28;20047;-59
2023/07/04 03:37:35;;;;;;;6.47;2.10;;;18.70;63.30;;;;;;5037542;28;20060;-59
2023/07/04 03:40:07;;;;;;;6.82;2.60;;;18.70;63.50;;;;;;5035204;28;20488;-59
2023/07/04 03:42:34;;;;;;;4.35;2.08;;;18.70;63.60;;;;;;5039179;28;20029;-60
2023/07/04 03:45:00;;;;;;;5.05;2.50;;;18.70;63.70;;;;;;5030477;28;20044;-60
2023/07/04 03:47:25;;;;;;;7.93;2.03;;;18.70;63.80;;;;;;5042048;28;20029;-60
2023/07/04 03:49:51;;;;;;;4.53;1.95;;;18.70;64.00;;;;;;5040287;28;20034;-59
2023/07/04 03:52:17;;;;;;;2.58;1.90;;;18.70;64.10;;;;;;5023178;28;20526;-59
2023/07/04 03:54:42;;;;;;;5.72;2.15;;;18.80;64.20;;;;;;5041647;28;20071;-60
2023/07/04 03:57:09;;;;;;;11.10;2.58;;;18.80;64.30;;;;;;5035260;28;20030;-61
2023/07/04 03:59:35;;;;;;;5.13;2.30;;;18.80;64.40;;;;;;5042455;28;20047;-60
2023/07/04 04:02:01;;;;;;;3.90;2.45;;;18.80;64.50;;;;;;5040402;28;20082;-60
2023/07/04 04:04:27;;;;;;;5.00;2.50;;;18.80;64.80;;;;;;5039688;28;20064;-59
2023/07/04 04:06:56;;;;;;;6.38;2.38;;;18.80;65.00;;;;;;5037738;28;20034;-60
2023/07/04 04:09:23;;;;;;;5.13;2.90;;;18.80;65.10;;;;;;5038940;28;20030;-59
2023/07/04 04:11:50;;;;;;;3.95;2.15;;;18.90;64.90;;;;;;5032614;28;20045;-61
2023/07/04 04:14:16;;;;;;;6.45;2.08;;;18.90;65.00;;;;;;5039582;28;20021;-60
2023/07/04 04:16:42;;;;;;;4.70;2.17;;;18.90;64.90;;;;;;5037941;28;20535;-61
2023/07/04 04:19:08;;;;;;;4.55;2.20;;;18.90;65.10;;;;;;5037809;28;20085;-60
2023/07/04 04:21:34;;;;;;;4.63;2.30;;;18.90;64.80;;;;;;5041436;28;20025;-60
2023/07/04 04:23:59;;;;;;;5.05;2.30;;;19.00;65.60;;;;;;5036062;28;20056;-60
2023/07/04 04:26:25;;;;;;;3.88;2.42;;;19.00;64.60;;;;;;5014678;28;20409;-61
2023/07/04 04:28:53;;;;;;;3.13;1.98;;;19.10;64.60;;;;;;5017432;28;20381;-61
2023/07/04 04:31:19;;;;;;;3.92;2.30;;;19.00;64.40;;;;;;5018680;28;20050;-60
2023/07/04 04:33:45;;;;;;;4.25;2.55;;;19.10;64.60;;;;;;5009692;28;20034;-61
2023/07/04 04:36:11;;;;;;;4.32;2.47;;;19.10;64.50;;;;;;5015817;28;20037;-61
2023/07/04 04:38:36;;;;;;;5.13;2.78;;;19.10;64.40;;;;;;5013508;28;20064;-59
2023/07/04 04:41:06;;;;;;;7.28;3.63;;;19.10;64.30;;;;;;5020793;28;20026;-60
2023/07/04 04:43:32;;;;;;;4.72;2.88;;;19.10;64.80;;;;;;5018624;28;20026;-61
2023/07/04 04:45:59;;;;;;;6.53;3.25;;;19.20;64.40;;;;;;5020232;28;20026;-60
2023/07/04 04:48:29;;;;;;;4.47;2.30;;;19.20;64.60;;;;;;5018905;28;20081;-60
2023/07/04 04:50:57;;;;;;;4.43;2.28;;;19.20;64.20;;;;;;5020931;28;20146;-59
2023/07/04 04:53:24;;;;;;;4.55;2.35;;;19.30;64.30;;;;;;5013984;28;21483;-60
2023/07/04 04:55:51;;;;;;;3.42;2.40;;;19.30;64.30;;;;;;5011062;28;20045;-59
2023/07/04 04:58:18;;;;;;;5.68;2.33;;;19.40;64.40;;;;;;5021091;28;20030;-59
2023/07/04 05:00:44;;;;;;;5.38;1.90;;;19.40;64.60;;;;;;5018901;28;20409;-59
2023/07/04 05:03:10;;;;;;;3.45;2.15;;;19.50;64.50;;;;;;5014381;28;20021;-61
2023/07/04 05:05:36;;;;;;;5.55;2.10;;;19.60;64.30;;;;;;5025965;28;20026;-61
2023/07/04 05:08:02;;;;;;;6.30;1.83;;;19.70;64.20;;;;;;5027941;28;20064;-60
2023/07/04 05:10:28;;;;;;;4.80;1.73;;;19.70;64.20;;;;;;5017893;28;20033;-60
2023/07/04 05:12:53;;;;;;;3.75;2.30;;;19.80;64.10;;;;;;5021191;28;20026;-59
2023/07/04 05:15:19;;;;;;;3.38;1.52;;;19.70;64.00;;;;;;5020206;28;20038;-60
2023/07/04 05:17:45;;;;;;;2.80;1.70;;;19.70;63.80;;;;;;5019728;28;20042;-60
2023/07/04 05:20:13;;;;;;;3.75;1.77;;;19.80;63.70;;;;;;5019381;28;20053;-60
2023/07/04 05:22:39;;;;;;;6.18;1.88;;;19.80;63.60;;;;;;5012774;28;20029;-61
2023/07/04 05:25:05;;;;;;;3.63;1.50;;;19.80;63.60;;;;;;5014723;28;20056;-61
2023/07/04 05:27:31;;;;;;;4.38;1.70;;;19.80;63.90;;;;;;5036380;28;20026;-61
2023/07/04 05:29:57;;;;;;;6.15;1.65;;;19.80;64.20;;;;;;5040453;28;20032;-61
2023/07/04 05:32:22;;;;;;;2.92;1.65;;;19.90;64.50;;;;;;5036667;28;20033;-61
2023/07/04 05:34:48;;;;;;;6.68;1.58;;;19.90;64.50;;;;;;5035311;28;20048;-61
2023/07/04 05:37:15;;;;;;;2.38;1.63;;;20.00;64.60;;;;;;5035276;28;20022;-61
2023/07/04 05:39:41;;;;;;;3.70;1.70;;;20.10;64.60;;;;;;5030809;28;20113;-60
2023/07/04 05:42:07;;;;;;;2.95;1.40;;;20.20;64.20;;;;;;5036479;28;20030;-59
2023/07/04 05:44:32;;;;;;;4.47;1.70;;;20.30;63.70;;;;;;5039593;28;20032;-60
2023/07/04 05:46:58;;;;;;;3.33;1.60;;;20.30;63.40;;;;;;5032747;28;20036;-60
2023/07/04 05:49:23;;;;;;;3.55;1.83;;;20.40;63.30;;;;;;5037611;28;20044;-60
2023/07/04 05:51:49;;;;;;;2.30;1.50;;;20.40;63.00;;;;;;5021723;28;20030;-61
2023/07/04 05:54:15;;;;;;;7.05;1.85;;;20.50;63.00;;;;;;5039531;28;20025;-60
2023/07/04 05:56:40;;;;;;;3.92;1.95;;;20.50;62.60;;;;;;5036293;28;20037;-60
2023/07/04 05:59:08;;;;;;;3.90;1.60;;;20.50;62.70;;;;;;5041880;28;20128;-59
2023/07/04 06:01:37;;;;;;;4.10;1.92;;;20.50;62.60;;;;;;5019632;28;20036;-60
2023/07/04 06:04:06;;;;;;;3.78;1.70;;;20.50;62.40;;;;;;5035765;28;20021;-61
2023/07/04 06:06:41;;;;;;;3.30;1.70;;;20.50;62.40;;;;;;5038012;28;20056;-61
2023/07/04 06:09:10;;;;;;;2.95;1.88;;;20.50;63.20;;;;;;5033871;28;20044;-61
2023/07/04 06:11:39;;;;;;;5.65;1.73;;;20.50;62.60;;;;;;5040134;28;20030;-59
2023/07/04 06:14:06;;;;;;;2.50;1.30;;;20.50;63.50;;;;;;5036068;28;20520;-60
2023/07/04 06:16:34;;;;;;;3.42;1.40;;;20.50;62.80;;;;;;5032908;28;20041;-63
2023/07/04 06:18:59;;;;;;;2.55;1.35;;;20.60;62.70;;;;;;5033787;28;20022;-60
2023/07/04 06:21:26;;;;;;;2.42;1.50;;;20.60;62.70;;;;;;5037518;28;20053;-60
2023/07/04 06:23:54;;;;;;;2.67;1.50;;;20.70;62.80;;;;;;5037420;28;20018;-60
2023/07/04 06:26:21;;;;;;;5.70;1.52;;;20.80;63.00;;;;;;5038241;28;20050;-59
2023/07/04 06:28:49;;;;;;;4.68;1.65;;;20.80;62.90;;;;;;5038269;28;20688;-60
2023/07/04 06:31:16;;;;;;;2.35;1.58;;;21.00;63.10;;;;;;5035209;28;20029;-60
2023/07/04 06:33:42;;;;;;;2.72;1.52;;;21.10;63.00;;;;;;5032625;28;20022;-61
2023/07/04 06:36:12;;;;;;;6.15;1.73;;;21.20;62.80;;;;;;5034474;28;20103;-60
2023/07/04 06:38:38;;;;;;;4.10;1.58;;;21.40;62.50;;;;;;5034091;28;20026;-61
2023/07/04 06:41:07;;;;;;;2.28;1.50;;;21.60;62.10;;;;;;5026165;28;20033;-61
2023/07/04 06:43:34;;;;;;;3.08;1.70;;;21.80;61.70;;;;;;5030841;28;20049;-61
2023/07/04 06:46:00;;;;;;;3.55;1.48;;;21.90;61.00;;;;;;5037925;28;20184;-61
2023/07/04 06:48:27;;;;;;;2.95;1.38;;;22.00;60.40;;;;;;5034260;28;20081;-60
2023/07/04 06:50:58;;;;;;;2.50;1.50;;;22.00;59.70;;;;;;5033510;28;20049;-61
2023/07/04 06:53:24;;;;;;;2.63;1.65;;;22.00;59.80;;;;;;5033150;28;21775;-60
2023/07/04 06:55:50;;;;;;;4.75;1.80;;;22.00;59.70;;;;;;5031750;28;20041;-62
2023/07/04 06:58:15;;;;;;;4.22;1.48;;;22.10;59.80;;;;;;5040533;28;20056;-61
2023/07/04 07:00:42;;;;;;;4.13;1.80;;;22.10;59.70;;;;;;5035193;28;20076;-62
2023/07/04 07:03:07;;;;;;;3.72;1.98;;;22.20;59.60;;;;;;5039081;28;20036;-61
2023/07/04 07:05:42;;;;;;;3.63;1.85;;;22.30;59.70;;;;;;5044187;28;20061;-60
2023/07/04 07:08:08;;;;;;;3.47;1.58;;;22.40;59.30;;;;;;5041308;28;20022;-61
2023/07/04 07:10:37;;;;;;;4.03;1.80;;;22.50;59.10;;;;;;5043250;28;20040;-60
2023/07/04 07:13:03;;;;;;;3.38;1.50;;;22.50;58.80;;;;;;5038419;28;20084;-60
2023/07/04 07:15:30;;;;;;;3.78;2.10;;;22.60;58.50;;;;;;5039380;28;20034;-59
2023/07/04 07:17:56;;;;;;;5.20;1.63;;;22.60;58.30;;;;;;5037838;28;20021;-60
2023/07/04 07:20:21;;;;;;;4.00;1.83;;;22.70;58.50;;;;;;5038544;28;20021;-61
2023/07/04 07:22:47;;;;;;;3.03;1.63;;;22.80;58.40;;;;;;5038274;28;20027;-62
2023/07/04 07:25:12;;;;;;;4.65;1.83;;;22.90;58.30;;;;;;5042437;28;20053;-62
2023/07/04 07:27:38;;;;;;;3.47;1.67;;;23.10;58.00;;;;;;5029418;28;20044;-59
2023/07/04 07:30:04;;;;;;;5.70;1.95;;;23.20;57.60;;;;;;5042605;28;20037;-60
2023/07/04 07:32:30;;;;;;;4.90;1.80;;;23.40;57.30;;;;;;5037955;28;20084;-60
2023/07/04 07:34:56;;;;;;;7.00;2.28;;;23.60;56.70;;;;;;5035289;28;20037;-62
2023/07/04 07:37:22;;;;;;;6.97;2.00;;;23.70;55.40;;;;;;5041408;28;20040;-60
2023/07/04 07:39:50;;;;;;;4.45;1.70;;;23.80;54.80;;;;;;5037380;28;20071;-60
2023/07/04 07:42:16;;;;;;;5.75;2.25;;;23.90;53.60;;;;;;5043636;28;20026;-60
2023/07/04 07:44:42;;;;;;;5.70;2.33;;;24.00;53.40;;;;;;5034362;28;20088;-60
2023/07/04 07:47:10;;;;;;;3.50;1.90;;;24.00;53.00;;;;;;5032662;28;20062;-60
2023/07/04 07:49:36;;;;;;;4.35;1.98;;;24.00;53.00;;;;;;5036343;28;20048;-59
2023/07/04 07:52:02;;;;;;;7.68;2.20;;;24.00;53.00;;;;;;5035212;28;20033;-60
2023/07/04 07:54:28;;;;;;;8.73;1.90;;;24.00;52.80;;;;;;5036360;28;20117;-61
2023/07/04 07:56:53;;;;;;;9.77;3.03;;;24.00;52.10;;;;;;5033813;28;20029;-61
2023/07/04 07:59:20;;;;;;;7.47;3.47;;;24.00;51.00;;;;;;5033546;28;20065;-61
2023/07/04 08:01:47;;;;;;;8.93;4.25;;;24.00;49.60;;;;;;5034439;28;20022;-60
2023/07/04 08:04:13;;;;;;;9.68;4.20;;;23.90;50.00;;;;;;5041352;28;20083;-61
2023/07/04 08:06:42;;;;;;;9.02;3.40;;;23.80;49.20;;;;;;5032388;28;20026;-60
2023/07/04 08:09:10;;;;;;;7.53;3.70;;;23.80;49.70;;;;;;5039465;28;20026;-60
2023/07/04 08:11:37;;;;;;;6.95;4.00;;;23.80;49.60;;;;;;5039982;28;20028;-60
2023/07/04 08:14:03;;;;;;;7.93;3.90;;;23.80;49.70;;;;;;5039050;28;20085;-60
2023/07/04 08:16:41;;;;;;;11.82;5.15;;;23.90;50.30;;;;;;5034607;28;20072;-59
2023/07/04 08:19:06;;;;;;;7.90;4.20;;;24.00;49.50;;;;;;5038472;28;20101;-59
2023/07/04 08:21:32;;;;;;;8.50;3.95;;;24.10;49.60;;;;;;5040425;28;20037;-60
2023/07/04 08:23:58;;;;;;;9.98;4.68;;;24.20;49.40;;;;;;5035251;28;20033;-59
2023/07/04 08:26:26;;;;;;;8.07;3.92;;;24.40;49.00;;;;;;5036354;28;20080;-59
2023/07/04 08:28:56;;;;;;;13.60;5.50;;;24.60;49.10;;;;;;5041134;28;20021;-59
2023/07/04 08:31:23;;;;;;;10.93;6.07;;;24.70;47.40;;;;;;5029436;28;20260;-58
2023/07/04 08:33:49;;;;;;;12.02;5.40;;;24.90;46.20;;;;;;5040326;28;20526;-60
2023/07/04 08:36:16;;;;;;;8.27;5.38;;;25.00;46.30;;;;;;5033979;28;20084;-60
2023/07/04 08:38:43;;;;;;;8.77;4.85;;;25.00;46.10;;;;;;5040719;28;20036;-60
2023/07/04 08:41:19;;;;;;;11.15;5.55;;;25.10;46.20;;;;;;5039980;28;20021;-59
2023/07/04 08:44:05;;;;;;;10.43;5.70;;;25.20;45.00;;;;;;5043340;28;20036;-59
2023/07/04 08:46:39;;;;;;;10.38;5.20;;;25.20;44.80;;;;;;5032383;28;20014;-58
2023/07/04 08:49:07;;;;;;;11.20;6.03;;;25.20;44.70;;;;;;5033732;28;20033;-60
2023/07/04 08:51:43;;;;;;;10.05;6.07;;;25.10;44.60;;;;;;5042478;28;20104;-59
2023/07/04 08:54:12;;;;;;;11.20;7.15;;;25.10;43.70;;;;;;5037323;28;20088;-59
2023/07/04 08:56:39;;;;;;;14.38;7.30;;;25.10;42.90;;;;;;5037739;28;20040;-59
2023/07/04 08:59:15;;;;;;;9.57;5.95;;;25.10;43.20;;;;;;5037622;28;20572;-61
2023/07/04 09:02:04;;;;;;;19.67;6.22;;;25.20;42.90;;;;;;5037978;28;20033;-59
2023/07/04 09:04:51;;;;;;;12.63;7.35;;;25.10;43.00;;;;;;5043309;28;20017;-59
2023/07/04 09:07:45;;;;;;;9.05;6.20;;;25.20;42.70;;;;;;5042698;28;20029;-59
2023/07/04 09:10:29;;;;;;;9.68;5.95;;;25.20;42.60;;;;;;5031202;28;20025;-60
2023/07/04 09:12:55;;;;;;;12.10;5.22;;;25.30;43.40;;;;;;5026135;28;20034;-60
2023/07/04 09:15:36;;;;;;;14.55;6.13;;;25.30;42.90;;;;;;5042164;28;20060;-59
2023/07/04 09:18:40;;;;;;;10.13;5.93;;;25.30;42.30;;;;;;5035134;28;20117;-58
2023/07/04 09:21:15;;;;;;;11.50;5.95;;;25.30;39.90;;;;;;5034371;28;20038;-61
2023/07/04 09:23:43;;;;;;;10.93;5.72;;;25.30;41.60;;;;;;5038474;28;20030;-60
2023/07/04 09:26:12;;;;;;;8.38;5.07;;;25.20;42.20;;;;;;5037507;28;20085;-61
2023/07/04 09:28:43;;;;;;;11.73;5.75;;;25.10;42.40;;;;;;5039681;28;20053;-59
2023/07/04 09:31:26;;;;;;;11.75;6.30;;;25.20;42.90;;;;;;5037889;28;20593;-59
2023/07/04 09:33:53;;;;;;;12.63;6.35;;;25.30;42.90;;;;;;5038880;28;20270;-59
2023/07/04 09:36:25;;;;;;;10.27;5.82;;;25.50;43.50;;;;;;5022390;28;20101;-59
2023/07/04 09:38:56;;;;;;;10.48;6.25;;;25.70;42.40;;;;;;5027789;28;20133;-60
2023/07/04 09:41:31;;;;;;;13.35;6.20;;;25.90;41.60;;;;;;5038617;28;20036;-62
2023/07/04 09:44:18;;;;;;;12.43;5.55;;;26.10;41.70;;;;;;5035278;28;20033;-61
2023/07/04 09:46:49;;;;;;;10.35;6.28;;;26.20;39.60;;;;;;5021174;28;20506;-60
2023/07/04 09:49:36;;;;;;;10.75;5.90;;;26.30;40.00;;;;;;5001679;28;20037;-59
2023/07/04 09:52:04;;;;;;;9.55;5.20;;;26.30;39.90;;;;;;5020961;28;20085;-60
2023/07/04 09:54:36;;;;;;;10.60;5.68;;;26.30;40.10;;;;;;5031828;28;20063;-60
2023/07/04 09:57:25;;;;;;;11.27;5.50;;;26.30;40.00;;;;;;5036096;28;20074;-60
2023/07/04 09:59:52;;;;;;;12.93;7.45;;;26.30;40.20;;;;;;5037679;28;20087;-60
2023/07/04 10:02:29;;;;;;;14.73;7.15;;;26.30;40.40;;;;;;5039551;28;20026;-60
2023/07/04 10:04:55;;;;;;;11.07;8.07;;;26.30;39.80;;;;;;5038401;28;20089;-61
2023/07/04 10:07:24;;;;;;;14.07;8.90;;;26.30;38.80;;;;;;5040485;28;20026;-60
2023/07/04 10:09:54;;;;;;;11.10;7.65;;;26.30;38.40;;;;;;5040198;28;20021;-61
2023/07/04 10:12:21;;;;;;;17.17;7.82;;;26.30;39.20;;;;;;5034368;28;20030;-61
2023/07/04 10:14:52;;;;;;;14.38;8.98;;;26.30;39.00;;;;;;5038907;28;20029;-60
2023/07/04 10:17:27;;;;;;;12.32;8.00;;;26.30;37.60;;;;;;5038196;28;20060;-60
2023/07/04 10:20:00;;;;;;;15.05;7.85;;;26.30;37.80;;;;;;5038450;28;20025;-60
2023/07/04 10:22:31;;;;;;;12.13;7.20;;;26.20;38.10;;;;;;5020032;28;20617;-59
2023/07/04 10:24:58;;;;;;;12.15;7.28;;;26.20;38.90;;;;;;5037319;28;20137;-61
2023/07/04 10:27:34;;;;;;;13.98;7.78;;;26.20;38.50;;;;;;5038320;28;20032;-60
2023/07/04 10:30:15;;;;;;;14.70;8.07;;;26.30;38.30;;;;;;5031403;28;20037;-59
2023/07/04 10:32:46;;;;;;;11.90;7.53;;;26.20;37.40;;;;;;5037193;28;20557;-60
2023/07/04 10:35:18;;;;;;;9.75;6.53;;;26.20;38.40;;;;;;5033687;28;20046;-60
2023/07/04 10:37:47;;;;;;;10.05;6.05;;;26.20;39.30;;;;;;5037135;28;20021;-60
2023/07/04 10:40:15;;;;;;;9.90;5.53;;;26.30;39.10;;;;;;5036897;28;20100;-60
2023/07/04 10:43:06;;;;;;;9.65;5.22;;;26.40;39.10;;;;;;5038782;28;20162;-59
2023/07/04 10:45:35;;;;;;;8.48;5.65;;;26.50;39.10;;;;;;5004484;28;20046;-60
2023/07/04 10:48:09;;;;;;;9.18;5.22;;;26.70;37.70;;;;;;5037211;28;20135;-59
2023/07/04 10:51:01;;;;;;;8.60;4.70;;;26.80;37.60;;;;;;5021801;28;20037;-59
2023/07/04 10:53:27;;;;;;;8.07;4.50;;;26.90;37.30;;;;;;5008275;28;20495;-60
2023/07/04 10:56:05;;;;;;;7.85;5.10;;;26.90;37.50;;;;;;5021677;28;20029;-60
2023/07/04 10:58:36;;;;;;;8.63;4.85;;;27.10;37.60;;;;;;5036541;28;20033;-60
2023/07/04 11:01:12;;;;;;;7.82;4.55;;;27.30;37.50;;;;;;5033596;28;20018;-60
2023/07/04 11:03:57;;;;;;;6.82;3.92;;;27.40;37.40;;;;;;5038752;28;20029;-60
2023/07/04 11:06:44;;;;;;;7.53;4.30;;;27.60;37.30;;;;;;5036720;28;20045;-61
2023/07/04 11:09:14;;;;;;;7.05;3.80;;;27.70;35.40;;;;;;5036281;28;20029;-61
2023/07/04 11:11:44;;;;;;;7.25;3.85;;;27.70;36.10;;;;;;5039978;28;20040;-61
2023/07/04 11:14:16;;;;;;;9.57;3.70;;;27.70;35.40;;;;;;5037388;28;20033;-60
2023/07/04 11:16:44;;;;;;;8.95;3.70;;;27.70;35.30;;;;;;5039531;28;20049;-60
2023/07/04 11:19:28;;;;;;;6.20;3.20;;;27.70;36.30;;;;;;5039353;28;20037;-60
2023/07/04 11:22:13;;;;;;;9.73;2.75;;;27.70;36.00;;;;;;5039399;28;20041;-59
2023/07/04 11:24:53;;;;;;;4.50;2.65;;;27.80;35.50;;;;;;5038263;28;20085;-60
2023/07/04 11:27:30;;;;;;;6.43;3.22;;;27.90;35.80;;;;;;5037530;28;20028;-60
2023/07/04 11:29:58;;;;;;;8.75;3.00;;;28.10;34.50;;;;;;5038562;28;20087;-61
2023/07/04 11:32:25;;;;;;;4.80;3.15;;;28.20;34.70;;;;;;5039627;28;20091;-62
2023/07/04 11:35:06;;;;;;;5.63;3.42;;;28.20;34.40;;;;;;5037863;28;20033;-60
2023/07/04 11:37:44;;;;;;;7.10;2.65;;;28.40;34.80;;;;;;5036790;28;20023;-61
2023/07/04 11:40:31;;;;;;;9.10;3.53;;;28.40;35.10;;;;;;5030375;28;20026;-61
2023/07/04 11:43:03;;;;;;;5.63;3.03;;;28.50;34.10;;;;;;5016421;28;20380;-61
2023/07/04 11:45:31;;;;;;;5.22;2.92;;;28.60;35.00;;;;;;5039212;28;20025;-60
2023/07/04 11:48:02;;;;;;;5.38;2.97;;;28.60;33.90;;;;;;5038593;28;20033;-59
2023/07/04 11:50:49;;;;;;;4.70;2.90;;;28.60;33.70;;;;;;5035955;28;20029;-60
2023/07/04 11:53:19;;;;;;;6.05;3.30;;;28.60;31.90;;;;;;5039528;28;20025;-61
2023/07/04 11:56:12;;;;;;;5.70;3.28;;;28.60;33.80;;;;;;5036065;28;20082;-61
2023/07/04 11:58:38;;;;;;;4.57;2.43;;;28.60;33.70;;;;;;5034709;28;20380;-60
2023/07/04 12:01:04;;;;;;;4.28;2.53;;;28.70;33.70;;;;;;5037232;28;20035;-60
2023/07/04 12:03:29;;;;;;;4.95;3.05;;;28.70;33.10;;;;;;5037355;28;20049;-59
2023/07/04 12:05:58;;;;;;;5.10;2.65;;;28.80;34.00;;;;;;5039528;28;20202;-58
2023/07/04 12:08:50;;;;;;;8.27;2.90;;;28.80;32.90;;;;;;5035315;28;20029;-60
2023/07/04 12:11:42;;;;;;;3.47;2.25;;;28.90;31.40;;;;;;5039179;28;20022;-59
2023/07/04 12:14:12;;;;;;;7.28;2.17;;;28.90;33.70;;;;;;5041917;28;20040;-60
2023/07/04 12:16:37;;;;;;;5.95;2.70;;;29.10;33.10;;;;;;5041027;28;20067;-61
2023/07/04 12:19:06;;;;;;;5.05;2.75;;;29.20;32.70;;;;;;5042275;28;20076;-61
2023/07/04 12:21:35;;;;;;;6.18;2.60;;;29.20;31.60;;;;;;5034492;28;20021;-60
2023/07/04 12:24:05;;;;;;;4.72;2.45;;;29.30;32.40;;;;;;5046602;28;20033;-60
2023/07/04 12:26:32;;;;;;;10.82;3.00;;;29.40;30.50;;;;;;5030711;28;20050;-60
2023/07/04 12:29:02;;;;;;;4.43;2.15;;;29.40;31.00;;;;;;5033490;28;20037;-60
2023/07/04 12:31:28;;;;;;;3.75;2.67;;;29.50;31.10;;;;;;5035728;28;20030;-61
2023/07/04 12:33:54;;;;;;;8.80;2.60;;;29.50;31.40;;;;;;5038774;28;20034;-60
2023/07/04 12:36:27;;;;;;;7.40;2.45;;;29.60;31.10;;;;;;5039684;28;20045;-62
2023/07/04 12:38:56;;;;;;;4.82;2.60;;;29.60;30.00;;;;;;5037812;28;20026;-60
2023/07/04 12:41:25;;;;;;;5.10;2.30;;;29.60;29.80;;;;;;5025157;28;20037;-60
2023/07/04 12:44:00;;;;;;;4.22;2.50;;;29.50;30.30;;;;;;5037154;28;20037;-61
2023/07/04 12:46:28;;;;;;;3.75;2.28;;;29.50;30.90;;;;;;5036124;28;20030;-60
2023/07/04 12:48:55;;;;;;;3.72;2.30;;;29.50;30.90;;;;;;5031956;28;20056;-62
2023/07/04 12:51:26;;;;;;;7.43;2.33;;;29.50;30.40;;;;;;5028137;28;20034;-62
2023/07/04 12:53:53;;;;;;;4.95;2.20;;;29.50;30.10;;;;;;5032510;28;20036;-62
2023/07/04 12:56:20;;;;;;;6.47;1.92;;;29.50;29.90;;;;;;5036126;28;20397;-61